This is the latest recevied weather packets stored in our database for station/object YO8PIC-4. If no packets are shown the sender has not sent any weather packets the latest 10 day(s).
| Time | Temp. | Humidity | Pressure | Rain* | Wind** | Luminosity | Snow |
|---|---|---|---|---|---|---|---|
| 1777997571 | 23.33° C | 52% | 1007.8 hPa | - | - | - | - |
| 1777996967 | 23.89° C | 52% | 1008.7 hPa | - | - | - | - |
| 1777996367 | 23.89° C | 52% | 1008.7 hPa | - | - | - | - |
| 1777995767 | 23.89° C | 51% | 1008.7 hPa | - | - | - | - |
| 1777995167 | 23.89° C | 51% | 1008.8 hPa | - | - | - | - |
| 1777994567 | 23.89° C | 51% | 1008.9 hPa | - | - | - | - |
| 1777993967 | 24.44° C | 49% | 1008.9 hPa | - | - | - | - |
| 1777993366 | 23.33° C | 51% | 1008.1 hPa | - | - | - | - |
| 1777992764 | 23.33° C | 50% | 1008 hPa | - | - | - | - |
| 1777992160 | 24.44° C | 49% | 1009 hPa | - | - | - | - |
| 1777991559 | 23.89° C | 49% | 1009.1 hPa | - | - | - | - |
| 1777990959 | 23.89° C | 49% | 1009.1 hPa | - | - | - | - |
| 1777990359 | 23.89° C | 48% | 1009.2 hPa | - | - | - | - |
| 1777989759 | 24.44° C | 48% | 1009.3 hPa | - | - | - | - |
| 1777989159 | 24.44° C | 48% | 1009.3 hPa | - | - | - | - |
| 1777988559 | 27.78° C | 41% | 1009.3 hPa | - | - | - | - |
| 1777987959 | 26.67° C | 42% | 1009.4 hPa | - | - | - | - |
| 1777987358 | 26.67° C | 41% | 1009.5 hPa | - | - | - | - |
| 1777986758 | 26.11° C | 41% | 1009.6 hPa | - | - | - | - |
| 1777986158 | 26.67° C | 39% | 1009.6 hPa | - | - | - | - |
| 1777985558 | 26.67° C | 36% | 1009.7 hPa | - | - | - | - |
| 1777984958 | 27.78° C | 33% | 1009.8 hPa | - | - | - | - |
| 1777984358 | 26.67° C | 41% | 1009.9 hPa | - | - | - | - |
| 1777983758 | 26.67° C | 45% | 1010 hPa | - | - | - | - |
| 1777983157 | 26.67° C | 47% | 1010.2 hPa | - | - | - | - |
* Rain since midnight (hover to see other rain measurements)
** Current wind speed in m/s (hover to see current wind gust speed)